Weehawken, NJ (07086)

12:29 PM EST on December 21, 2014 (GMT -0500)
Harmon Cove | Change Station
CLOSE
Current Station
Personal Weather Station
Location: Secaucus, NJ
Elevation: 26 ft
Nearby Weather Stations

Elev 26 ft 40.79 °N, 74.08 °W | Updated 8 minutes ago

Overcast
Overcast
34.0 °F
Feels Like 28 °F
N
7.0
Wind Variable Wind from West
Gusts 7.0 mph

Today
High -- | Low -- °F
--% Chance of Precip.
Yesterday
High -- | Low -- °F
Precip. -- in
7:16 AM 4:31 PM
Waning Crescent, 0% visible
Pressure 30.30 in
Visibility 8.0 miles
Clouds Overcast 1600 ft
Windchill 28 °F
Dew Point 28 °F
Humidity 78%
Rainfall 0.00 in
Snow Depth Not available.
UV 1 out of 12
Pollen .10 out of 12
Air Quality Not available.
Flu Activity Not available.
METAR KNYC 211651Z AUTO VRB04KT 8SM OVC016 01/M04 A3032 RMK AO2 SLP260 T00061039 $

More Conditions Fewer Conditions

Pressure 30.30 in
Visibility 8.0 miles
Clouds Overcast 1600 ft
Windchill 28 °F
Dew Point 28 °F
Humidity 78%
Rainfall 0.00 in
Snow Depth Not available.
UV 1 out of 12
Pollen .10 out of 12
Air Quality Not available.
Flu Activity Not available.
METAR KNYC 211651Z AUTO VRB04KT 8SM OVC016 01/M04 A3032 RMK AO2 SLP260 T00061039 $

More Conditions Fewer Conditions

10-Day Weather Forecast

Almanac

Astronomy

Dec. 21, 2014 Rise Set
Actual Time
Civil Twilight
Nautical Twilight
Astronomical Twilight
Moon
Length of Visible Light
Length of Day
Tomorrow will be .
, % of the Moon is Illuminated

Today's Extremes

State Highs State Lows

Community

WunderPhotos

Upload Photos

1,779,436 photos uploaded!

WunderBlogs® & News

Nearby

Air Quality

  Air Quality AQ Index Pollutant
Not available.

Snow Depth

Station Depth Elevation

Earthquake Activity

City Distance Mag. Time & Date
Minimum magnitude displayed is 2.5.

Coastal Water Temperatures

Place Temperature

Nearby Weather Stations